sensor_id;sensor_type;location;lat;lon;timestamp;pressure;altitude;pressure_sealevel;temperature;humidity
75089;BME280;63673;49.928;8.150;2023-05-10T00:00:32;983.89;;;11.49;100
75089;BME280;63673;49.928;8.150;2023-05-10T00:01:34;983.92;;;11.49;100
75089;BME280;63673;49.928;8.150;2023-05-10T00:02:36;983.88;;;11.48;100
75089;BME280;63673;49.928;8.150;2023-05-10T00:03:38;983.94;;;11.47;100
75089;BME280;63673;49.928;8.150;2023-05-10T00:04:39;983.93;;;11.47;100
75089;BME280;63673;49.928;8.150;2023-05-10T00:05:41;983.94;;;11.47;100
75089;BME280;63673;49.928;8.150;2023-05-10T00:06:43;983.97;;;11.46;100
75089;BME280;63673;49.928;8.150;2023-05-10T00:07:45;983.9;;;11.45;100
75089;BME280;63673;49.928;8.150;2023-05-10T00:08:46;983.95;;;11.45;100
75089;BME280;63673;49.928;8.150;2023-05-10T00:09:48;983.94;;;11.44;100
75089;BME280;63673;49.928;8.150;2023-05-10T00:10:50;983.92;;;11.43;100
75089;BME280;63673;49.928;8.150;2023-05-10T00:11:51;983.94;;;11.43;100
75089;BME280;63673;49.928;8.150;2023-05-10T00:12:53;983.93;;;11.42;100
75089;BME280;63673;49.928;8.150;2023-05-10T00:13:55;983.95;;;11.42;100
75089;BME280;63673;49.928;8.150;2023-05-10T00:14:57;983.91;;;11.41;100
75089;BME280;63673;49.928;8.150;2023-05-10T00:15:58;983.93;;;11.41;100
75089;BME280;63673;49.928;8.150;2023-05-10T00:17:00;983.96;;;11.4;100
75089;BME280;63673;49.928;8.150;2023-05-10T00:18:02;984;;;11.4;100
75089;BME280;63673;49.928;8.150;2023-05-10T00:19:03;984.04;;;11.4;100
75089;BME280;63673;49.928;8.150;2023-05-10T00:20:05;984.03;;;11.39;100
75089;BME280;63673;49.928;8.150;2023-05-10T00:21:07;983.97;;;11.39;100
75089;BME280;63673;49.928;8.150;2023-05-10T00:22:09;983.99;;;11.39;100
75089;BME280;63673;49.928;8.150;2023-05-10T00:23:10;984.02;;;11.38;100
75089;BME280;63673;49.928;8.150;2023-05-10T00:24:12;983.97;;;11.38;100
75089;BME280;63673;49.928;8.150;2023-05-10T00:25:14;983.99;;;11.38;100
75089;BME280;63673;49.928;8.150;2023-05-10T00:26:16;984.02;;;11.38;100
75089;BME280;63673;49.928;8.150;2023-05-10T00:27:17;984;;;11.38;100
75089;BME280;63673;49.928;8.150;2023-05-10T00:28:19;983.99;;;11.38;100
75089;BME280;63673;49.928;8.150;2023-05-10T00:29:21;983.99;;;11.37;100
75089;BME280;63673;49.928;8.150;2023-05-10T00:30:23;983.99;;;11.38;100
75089;BME280;63673;49.928;8.150;2023-05-10T00:31:24;984.02;;;11.37;100
75089;BME280;63673;49.928;8.150;2023-05-10T00:32:26;983.99;;;11.38;100
75089;BME280;63673;49.928;8.150;2023-05-10T00:33:28;983.98;;;11.38;100
75089;BME280;63673;49.928;8.150;2023-05-10T00:34:29;984.04;;;11.37;100
75089;BME280;63673;49.928;8.150;2023-05-10T00:35:31;984.03;;;11.38;100
75089;BME280;63673;49.928;8.150;2023-05-10T00:36:33;984.07;;;11.37;100
75089;BME280;63673;49.928;8.150;2023-05-10T00:37:35;984.05;;;11.38;100
75089;BME280;63673;49.928;8.150;2023-05-10T00:38:36;984.06;;;11.37;100
75089;BME280;63673;49.928;8.150;2023-05-10T00:39:38;984.05;;;11.37;100
75089;BME280;63673;49.928;8.150;2023-05-10T00:40:40;984.11;;;11.37;100
75089;BME280;63673;49.928;8.150;2023-05-10T00:41:42;984.08;;;11.37;100
75089;BME280;63673;49.928;8.150;2023-05-10T00:42:43;984.09;;;11.37;100
75089;BME280;63673;49.928;8.150;2023-05-10T00:43:45;984.09;;;11.37;100
75089;BME280;63673;49.928;8.150;2023-05-10T00:44:47;984.1;;;11.36;100
75089;BME280;63673;49.928;8.150;2023-05-10T00:45:49;984.06;;;11.36;100
75089;BME280;63673;49.928;8.150;2023-05-10T00:46:50;984.08;;;11.36;100
75089;BME280;63673;49.928;8.150;2023-05-10T00:47:52;984.05;;;11.36;100
75089;BME280;63673;49.928;8.150;2023-05-10T00:48:54;984.08;;;11.36;100
75089;BME280;63673;49.928;8.150;2023-05-10T00:49:56;984.02;;;11.36;100
75089;BME280;63673;49.928;8.150;2023-05-10T00:50:57;984.08;;;11.35;100
75089;BME280;63673;49.928;8.150;2023-05-10T00:51:59;984.06;;;11.35;100
75089;BME280;63673;49.928;8.150;2023-05-10T00:53:01;984.08;;;11.35;100
75089;BME280;63673;49.928;8.150;2023-05-10T00:54:02;984.07;;;11.35;100
75089;BME280;63673;49.928;8.150;2023-05-10T00:55:04;984.09;;;11.34;100
75089;BME280;63673;49.928;8.150;2023-05-10T00:56:06;984.03;;;11.34;100
75089;BME280;63673;49.928;8.150;2023-05-10T00:57:08;984.01;;;11.33;100
75089;BME280;63673;49.928;8.150;2023-05-10T00:58:09;984.03;;;11.33;100
75089;BME280;63673;49.928;8.150;2023-05-10T00:59:11;983.94;;;11.33;100
75089;BME280;63673;49.928;8.150;2023-05-10T01:00:13;983.97;;;11.32;100
75089;BME280;63673;49.928;8.150;2023-05-10T01:01:15;984.02;;;11.32;100
75089;BME280;63673;49.928;8.150;2023-05-10T01:02:16;983.99;;;11.31;100
75089;BME280;63673;49.928;8.150;2023-05-10T01:03:18;983.99;;;11.3;100
75089;BME280;63673;49.928;8.150;2023-05-10T01:04:20;984.02;;;11.3;100
75089;BME280;63673;49.928;8.150;2023-05-10T01:05:21;984.02;;;11.3;100
75089;BME280;63673;49.928;8.150;2023-05-10T01:06:23;984;;;11.29;100
75089;BME280;63673;49.928;8.150;2023-05-10T01:07:25;983.96;;;11.29;100
75089;BME280;63673;49.928;8.150;2023-05-10T01:08:27;983.99;;;11.28;100
75089;BME280;63673;49.928;8.150;2023-05-10T01:09:28;984.04;;;11.28;100
75089;BME280;63673;49.928;8.150;2023-05-10T01:10:30;984.06;;;11.27;100
75089;BME280;63673;49.928;8.150;2023-05-10T01:11:32;984.03;;;11.27;100
75089;BME280;63673;49.928;8.150;2023-05-10T01:12:34;984.03;;;11.27;100
75089;BME280;63673;49.928;8.150;2023-05-10T01:13:36;984.01;;;11.26;100
75089;BME280;63673;49.928;8.150;2023-05-10T01:14:37;984.03;;;11.25;100
75089;BME280;63673;49.928;8.150;2023-05-10T01:15:39;984.04;;;11.26;100
75089;BME280;63673;49.928;8.150;2023-05-10T01:16:41;984.03;;;11.25;100
75089;BME280;63673;49.928;8.150;2023-05-10T01:17:43;984.01;;;11.23;100
75089;BME280;63673;49.928;8.150;2023-05-10T01:18:44;984.03;;;11.24;100
75089;BME280;63673;49.928;8.150;2023-05-10T01:19:46;984.04;;;11.23;100
75089;BME280;63673;49.928;8.150;2023-05-10T01:20:48;984;;;11.23;100
75089;BME280;63673;49.928;8.150;2023-05-10T01:21:51;984.08;;;11.22;100
75089;BME280;63673;49.928;8.150;2023-05-10T01:23:04;984.11;;;11.21;100
75089;BME280;63673;49.928;8.150;2023-05-10T01:24:01;984.04;;;11.22;100
75089;BME280;63673;49.928;8.150;2023-05-10T01:25:03;984.06;;;11.21;100
75089;BME280;63673;49.928;8.150;2023-05-10T01:26:02;984.04;;;11.21;100
75089;BME280;63673;49.928;8.150;2023-05-10T01:28:07;984.02;;;11.19;100
75089;BME280;63673;49.928;8.150;2023-05-10T01:28:07;984.03;;;11.2;100
75089;BME280;63673;49.928;8.150;2023-05-10T01:29:08;984.03;;;11.2;100
75089;BME280;63673;49.928;8.150;2023-05-10T01:30:39;984.08;;;11.2;100
75089;BME280;63673;49.928;8.150;2023-05-10T01:31:09;984.07;;;11.19;100
75089;BME280;63673;49.928;8.150;2023-05-10T01:32:13;984.07;;;11.2;100
75089;BME280;63673;49.928;8.150;2023-05-10T01:33:09;984.07;;;11.2;100
75089;BME280;63673;49.928;8.150;2023-05-10T01:34:11;984.06;;;11.19;100
75089;BME280;63673;49.928;8.150;2023-05-10T01:35:14;984.02;;;11.2;100
75089;BME280;63673;49.928;8.150;2023-05-10T01:36:15;984.05;;;11.2;100
75089;BME280;63673;49.928;8.150;2023-05-10T01:37:16;984.07;;;11.2;100
75089;BME280;63673;49.928;8.150;2023-05-10T01:38:18;984.06;;;11.2;100
75089;BME280;63673;49.928;8.150;2023-05-10T01:39:20;984.11;;;11.2;100
75089;BME280;63673;49.928;8.150;2023-05-10T01:40:22;984.12;;;11.2;100
75089;BME280;63673;49.928;8.150;2023-05-10T01:41:24;984.1;;;11.21;100
75089;BME280;63673;49.928;8.150;2023-05-10T01:42:25;984.14;;;11.2;100
75089;BME280;63673;49.928;8.150;2023-05-10T01:43:26;984.15;;;11.2;100
75089;BME280;63673;49.928;8.150;2023-05-10T01:44:29;984.14;;;11.2;100
75089;BME280;63673;49.928;8.150;2023-05-10T01:45:30;984.16;;;11.2;100
75089;BME280;63673;49.928;8.150;2023-05-10T01:46:33;984.16;;;11.2;100
75089;BME280;63673;49.928;8.150;2023-05-10T01:47:34;984.11;;;11.2;100
75089;BME280;63673;49.928;8.150;2023-05-10T01:48:34;984.17;;;11.19;100
75089;BME280;63673;49.928;8.150;2023-05-10T01:49:37;984.21;;;11.19;100
75089;BME280;63673;49.928;8.150;2023-05-10T01:50:39;984.22;;;11.19;100
75089;BME280;63673;49.928;8.150;2023-05-10T01:51:41;984.22;;;11.18;100
75089;BME280;63673;49.928;8.150;2023-05-10T01:52:42;984.29;;;11.18;100
75089;BME280;63673;49.928;8.150;2023-05-10T01:53:43;984.24;;;11.18;100
75089;BME280;63673;49.928;8.150;2023-05-10T01:54:49;984.27;;;11.18;100
75089;BME280;63673;49.928;8.150;2023-05-10T01:55:47;984.3;;;11.18;100
75089;BME280;63673;49.928;8.150;2023-05-10T01:56:50;984.29;;;11.18;100
75089;BME280;63673;49.928;8.150;2023-05-10T01:57:50;984.26;;;11.19;100
75089;BME280;63673;49.928;8.150;2023-05-10T01:58:52;984.32;;;11.19;100
75089;BME280;63673;49.928;8.150;2023-05-10T01:59:53;984.3;;;11.19;100
75089;BME280;63673;49.928;8.150;2023-05-10T02:00:55;984.32;;;11.19;100
75089;BME280;63673;49.928;8.150;2023-05-10T02:01:57;984.3;;;11.19;100
75089;BME280;63673;49.928;8.150;2023-05-10T02:02:59;984.31;;;11.19;100
75089;BME280;63673;49.928;8.150;2023-05-10T02:04:00;984.31;;;11.19;100
75089;BME280;63673;49.928;8.150;2023-05-10T02:05:02;984.32;;;11.2;100
75089;BME280;63673;49.928;8.150;2023-05-10T02:06:04;984.34;;;11.21;100
75089;BME280;63673;49.928;8.150;2023-05-10T02:07:06;984.37;;;11.21;100
75089;BME280;63673;49.928;8.150;2023-05-10T02:08:07;984.41;;;11.21;100
75089;BME280;63673;49.928;8.150;2023-05-10T02:09:09;984.4;;;11.21;100
75089;BME280;63673;49.928;8.150;2023-05-10T02:10:11;984.39;;;11.22;100
75089;BME280;63673;49.928;8.150;2023-05-10T02:11:13;984.43;;;11.22;100
75089;BME280;63673;49.928;8.150;2023-05-10T02:12:15;984.42;;;11.21;100
75089;BME280;63673;49.928;8.150;2023-05-10T02:13:16;984.39;;;11.22;100
75089;BME280;63673;49.928;8.150;2023-05-10T02:14:18;984.36;;;11.23;100
75089;BME280;63673;49.928;8.150;2023-05-10T02:15:20;984.38;;;11.23;100
75089;BME280;63673;49.928;8.150;2023-05-10T02:16:22;984.39;;;11.23;100
75089;BME280;63673;49.928;8.150;2023-05-10T02:17:23;984.42;;;11.23;100
75089;BME280;63673;49.928;8.150;2023-05-10T02:18:25;984.41;;;11.22;100
75089;BME280;63673;49.928;8.150;2023-05-10T02:19:26;984.41;;;11.22;100
75089;BME280;63673;49.928;8.150;2023-05-10T02:20:28;984.38;;;11.23;100
75089;BME280;63673;49.928;8.150;2023-05-10T02:21:30;984.4;;;11.23;100
75089;BME280;63673;49.928;8.150;2023-05-10T02:22:32;984.39;;;11.23;100
75089;BME280;63673;49.928;8.150;2023-05-10T02:23:33;984.46;;;11.23;100
75089;BME280;63673;49.928;8.150;2023-05-10T02:24:35;984.44;;;11.23;100
75089;BME280;63673;49.928;8.150;2023-05-10T02:25:37;984.37;;;11.23;100
75089;BME280;63673;49.928;8.150;2023-05-10T02:26:38;984.45;;;11.23;100
75089;BME280;63673;49.928;8.150;2023-05-10T02:27:40;984.5;;;11.23;100
75089;BME280;63673;49.928;8.150;2023-05-10T02:28:45;984.44;;;11.24;100
75089;BME280;63673;49.928;8.150;2023-05-10T02:29:46;984.49;;;11.24;100
75089;BME280;63673;49.928;8.150;2023-05-10T02:30:48;984.48;;;11.23;100
75089;BME280;63673;49.928;8.150;2023-05-10T02:31:51;984.44;;;11.23;100
75089;BME280;63673;49.928;8.150;2023-05-10T02:32:52;984.49;;;11.24;100
75089;BME280;63673;49.928;8.150;2023-05-10T02:33:53;984.49;;;11.23;100
75089;BME280;63673;49.928;8.150;2023-05-10T02:34:55;984.47;;;11.24;100
75089;BME280;63673;49.928;8.150;2023-05-10T02:35:57;984.49;;;11.25;100
75089;BME280;63673;49.928;8.150;2023-05-10T02:36:59;984.46;;;11.25;100
75089;BME280;63673;49.928;8.150;2023-05-10T02:38:00;984.5;;;11.26;100
75089;BME280;63673;49.928;8.150;2023-05-10T02:39:02;984.51;;;11.26;100
75089;BME280;63673;49.928;8.150;2023-05-10T02:40:04;984.51;;;11.26;100
75089;BME280;63673;49.928;8.150;2023-05-10T02:41:06;984.52;;;11.26;100
75089;BME280;63673;49.928;8.150;2023-05-10T02:42:07;984.49;;;11.26;100
75089;BME280;63673;49.928;8.150;2023-05-10T02:43:11;984.5;;;11.26;100
75089;BME280;63673;49.928;8.150;2023-05-10T02:44:11;984.52;;;11.26;100
75089;BME280;63673;49.928;8.150;2023-05-10T02:45:14;984.54;;;11.26;100
75089;BME280;63673;49.928;8.150;2023-05-10T02:46:14;984.54;;;11.27;100
75089;BME280;63673;49.928;8.150;2023-05-10T02:47:16;984.54;;;11.27;100
75089;BME280;63673;49.928;8.150;2023-05-10T02:48:18;984.54;;;11.27;100
75089;BME280;63673;49.928;8.150;2023-05-10T02:49:19;984.59;;;11.26;100
75089;BME280;63673;49.928;8.150;2023-05-10T02:50:21;984.52;;;11.26;100
75089;BME280;63673;49.928;8.150;2023-05-10T02:51:24;984.55;;;11.26;100
75089;BME280;63673;49.928;8.150;2023-05-10T02:52:34;984.53;;;11.26;100
75089;BME280;63673;49.928;8.150;2023-05-10T02:53:29;984.53;;;11.26;100
75089;BME280;63673;49.928;8.150;2023-05-10T02:54:29;984.57;;;11.26;100
75089;BME280;63673;49.928;8.150;2023-05-10T02:55:31;984.53;;;11.26;100
75089;BME280;63673;49.928;8.150;2023-05-10T02:56:33;984.54;;;11.25;100
75089;BME280;63673;49.928;8.150;2023-05-10T02:57:34;984.5;;;11.26;100
75089;BME280;63673;49.928;8.150;2023-05-10T02:58:35;984.5;;;11.26;100
75089;BME280;63673;49.928;8.150;2023-05-10T02:59:37;984.51;;;11.26;100
75089;BME280;63673;49.928;8.150;2023-05-10T03:00:38;984.55;;;11.26;100
75089;BME280;63673;49.928;8.150;2023-05-10T03:01:40;984.53;;;11.26;100
75089;BME280;63673;49.928;8.150;2023-05-10T03:02:42;984.57;;;11.25;100
75089;BME280;63673;49.928;8.150;2023-05-10T03:03:44;984.54;;;11.26;100
75089;BME280;63673;49.928;8.150;2023-05-10T03:04:45;984.55;;;11.25;100
75089;BME280;63673;49.928;8.150;2023-05-10T03:05:47;984.54;;;11.27;100
75089;BME280;63673;49.928;8.150;2023-05-10T03:06:49;984.57;;;11.27;100
75089;BME280;63673;49.928;8.150;2023-05-10T03:07:51;984.59;;;11.26;100
75089;BME280;63673;49.928;8.150;2023-05-10T03:08:52;984.59;;;11.26;100
75089;BME280;63673;49.928;8.150;2023-05-10T03:09:54;984.61;;;11.26;100
75089;BME280;63673;49.928;8.150;2023-05-10T03:11:01;984.54;;;11.27;100
75089;BME280;63673;49.928;8.150;2023-05-10T03:12:00;984.61;;;11.26;100
75089;BME280;63673;49.928;8.150;2023-05-10T03:13:03;984.59;;;11.27;100
75089;BME280;63673;49.928;8.150;2023-05-10T03:14:04;984.62;;;11.27;100
75089;BME280;63673;49.928;8.150;2023-05-10T03:15:03;984.62;;;11.27;100
75089;BME280;63673;49.928;8.150;2023-05-10T03:16:05;984.6;;;11.28;100
75089;BME280;63673;49.928;8.150;2023-05-10T03:17:08;984.62;;;11.28;100
75089;BME280;63673;49.928;8.150;2023-05-10T03:18:10;984.66;;;11.27;100
75089;BME280;63673;49.928;8.150;2023-05-10T03:19:11;984.59;;;11.27;100
75089;BME280;63673;49.928;8.150;2023-05-10T03:20:12;984.59;;;11.27;100
75089;BME280;63673;49.928;8.150;2023-05-10T03:21:13;984.61;;;11.28;100
75089;BME280;63673;49.928;8.150;2023-05-10T03:22:16;984.58;;;11.28;100
75089;BME280;63673;49.928;8.150;2023-05-10T03:23:21;984.64;;;11.28;100
75089;BME280;63673;49.928;8.150;2023-05-10T03:24:19;984.59;;;11.28;100
75089;BME280;63673;49.928;8.150;2023-05-10T03:25:20;984.59;;;11.28;100
75089;BME280;63673;49.928;8.150;2023-05-10T03:26:23;984.61;;;11.28;100
75089;BME280;63673;49.928;8.150;2023-05-10T03:27:24;984.63;;;11.29;100
75089;BME280;63673;49.928;8.150;2023-05-10T03:28:25;984.66;;;11.29;100
75089;BME280;63673;49.928;8.150;2023-05-10T03:29:27;984.65;;;11.28;100
75089;BME280;63673;49.928;8.150;2023-05-10T03:30:29;984.69;;;11.29;100
75089;BME280;63673;49.928;8.150;2023-05-10T03:31:30;984.72;;;11.29;100
75089;BME280;63673;49.928;8.150;2023-05-10T03:32:32;984.69;;;11.28;100
75089;BME280;63673;49.928;8.150;2023-05-10T03:33:34;984.72;;;11.28;100
75089;BME280;63673;49.928;8.150;2023-05-10T03:34:40;984.7;;;11.27;100
75089;BME280;63673;49.928;8.150;2023-05-10T03:35:37;984.78;;;11.27;100
75089;BME280;63673;49.928;8.150;2023-05-10T03:36:39;984.8;;;11.27;100
75089;BME280;63673;49.928;8.150;2023-05-10T03:37:41;984.79;;;11.27;100
75089;BME280;63673;49.928;8.150;2023-05-10T03:38:43;984.8;;;11.25;100
75089;BME280;63673;49.928;8.150;2023-05-10T03:39:44;984.8;;;11.25;100
75089;BME280;63673;49.928;8.150;2023-05-10T03:40:46;984.83;;;11.24;100
75089;BME280;63673;49.928;8.150;2023-05-10T03:41:48;984.84;;;11.24;100
75089;BME280;63673;49.928;8.150;2023-05-10T03:42:49;984.85;;;11.23;100
75089;BME280;63673;49.928;8.150;2023-05-10T03:43:51;984.88;;;11.23;100
75089;BME280;63673;49.928;8.150;2023-05-10T03:44:53;984.88;;;11.23;100
75089;BME280;63673;49.928;8.150;2023-05-10T03:45:55;984.87;;;11.23;100
75089;BME280;63673;49.928;8.150;2023-05-10T03:46:56;984.89;;;11.23;100
75089;BME280;63673;49.928;8.150;2023-05-10T03:47:58;984.86;;;11.22;100
75089;BME280;63673;49.928;8.150;2023-05-10T03:49:00;984.91;;;11.22;100
75089;BME280;63673;49.928;8.150;2023-05-10T03:50:02;984.85;;;11.22;100
75089;BME280;63673;49.928;8.150;2023-05-10T03:51:03;984.85;;;11.21;100
75089;BME280;63673;49.928;8.150;2023-05-10T03:52:05;984.9;;;11.22;100
75089;BME280;63673;49.928;8.150;2023-05-10T03:53:07;984.84;;;11.22;100
75089;BME280;63673;49.928;8.150;2023-05-10T03:54:09;984.86;;;11.22;100
75089;BME280;63673;49.928;8.150;2023-05-10T03:55:10;984.87;;;11.22;100
75089;BME280;63673;49.928;8.150;2023-05-10T03:56:12;984.84;;;11.21;100
75089;BME280;63673;49.928;8.150;2023-05-10T03:57:14;984.83;;;11.21;100
75089;BME280;63673;49.928;8.150;2023-05-10T03:58:15;984.82;;;11.21;100
75089;BME280;63673;49.928;8.150;2023-05-10T03:59:17;984.81;;;11.21;100
75089;BME280;63673;49.928;8.150;2023-05-10T04:00:19;984.8;;;11.22;100
75089;BME280;63673;49.928;8.150;2023-05-10T04:01:21;984.79;;;11.22;100
75089;BME280;63673;49.928;8.150;2023-05-10T04:02:22;984.7;;;11.22;100
75089;BME280;63673;49.928;8.150;2023-05-10T04:03:24;984.8;;;11.22;100
75089;BME280;63673;49.928;8.150;2023-05-10T04:04:26;984.76;;;11.23;100
75089;BME280;63673;49.928;8.150;2023-05-10T04:05:28;984.75;;;11.23;100
75089;BME280;63673;49.928;8.150;2023-05-10T04:06:29;984.82;;;11.23;100
75089;BME280;63673;49.928;8.150;2023-05-10T04:07:31;984.79;;;11.23;100
75089;BME280;63673;49.928;8.150;2023-05-10T04:08:33;984.8;;;11.23;100
75089;BME280;63673;49.928;8.150;2023-05-10T04:09:35;984.81;;;11.23;100
75089;BME280;63673;49.928;8.150;2023-05-10T04:10:36;984.82;;;11.24;100
75089;BME280;63673;49.928;8.150;2023-05-10T04:11:38;984.81;;;11.24;100
75089;BME280;63673;49.928;8.150;2023-05-10T04:12:40;984.83;;;11.25;100
75089;BME280;63673;49.928;8.150;2023-05-10T04:13:41;984.82;;;11.25;100
75089;BME280;63673;49.928;8.150;2023-05-10T04:14:43;984.85;;;11.25;100
75089;BME280;63673;49.928;8.150;2023-05-10T04:15:45;984.87;;;11.25;100
75089;BME280;63673;49.928;8.150;2023-05-10T04:16:47;984.85;;;11.26;100
75089;BME280;63673;49.928;8.150;2023-05-10T04:17:48;984.86;;;11.26;100
75089;BME280;63673;49.928;8.150;2023-05-10T04:18:50;984.87;;;11.25;100
75089;BME280;63673;49.928;8.150;2023-05-10T04:19:52;984.85;;;11.25;100
75089;BME280;63673;49.928;8.150;2023-05-10T04:20:53;984.92;;;11.26;100
75089;BME280;63673;49.928;8.150;2023-05-10T04:21:55;984.85;;;11.26;100
75089;BME280;63673;49.928;8.150;2023-05-10T04:22:57;984.89;;;11.27;100
75089;BME280;63673;49.928;8.150;2023-05-10T04:23:59;984.88;;;11.26;100
75089;BME280;63673;49.928;8.150;2023-05-10T04:25:00;984.89;;;11.26;100
75089;BME280;63673;49.928;8.150;2023-05-10T04:26:02;984.89;;;11.26;100
75089;BME280;63673;49.928;8.150;2023-05-10T04:27:04;984.94;;;11.26;100
75089;BME280;63673;49.928;8.150;2023-05-10T04:28:06;984.94;;;11.26;100
75089;BME280;63673;49.928;8.150;2023-05-10T04:29:07;984.94;;;11.25;100
75089;BME280;63673;49.928;8.150;2023-05-10T04:30:09;984.96;;;11.26;100
75089;BME280;63673;49.928;8.150;2023-05-10T04:31:11;984.92;;;11.26;100
75089;BME280;63673;49.928;8.150;2023-05-10T04:32:13;984.96;;;11.25;100
75089;BME280;63673;49.928;8.150;2023-05-10T04:33:14;984.97;;;11.25;100
75089;BME280;63673;49.928;8.150;2023-05-10T04:34:16;984.96;;;11.25;100
75089;BME280;63673;49.928;8.150;2023-05-10T04:35:18;985;;;11.26;100
75089;BME280;63673;49.928;8.150;2023-05-10T04:36:20;985.04;;;11.25;100
75089;BME280;63673;49.928;8.150;2023-05-10T04:37:20;984.99;;;11.25;100
75089;BME280;63673;49.928;8.150;2023-05-10T04:38:50;985.01;;;11.24;100
75089;BME280;63673;49.928;8.150;2023-05-10T04:41:59;985.04;;;11.23;100
75089;BME280;63673;49.928;8.150;2023-05-10T04:43:00;985.08;;;11.23;100
75089;BME280;63673;49.928;8.150;2023-05-10T04:44:02;985.12;;;11.23;100
75089;BME280;63673;49.928;8.150;2023-05-10T04:45:04;985.13;;;11.23;100
75089;BME280;63673;49.928;8.150;2023-05-10T04:46:06;985.17;;;11.23;100
75089;BME280;63673;49.928;8.150;2023-05-10T04:47:08;985.18;;;11.22;100
75089;BME280;63673;49.928;8.150;2023-05-10T04:48:09;985.19;;;11.22;100
75089;BME280;63673;49.928;8.150;2023-05-10T04:49:11;985.19;;;11.21;100
75089;BME280;63673;49.928;8.150;2023-05-10T04:50:13;985.15;;;11.2;100
75089;BME280;63673;49.928;8.150;2023-05-10T04:51:14;985.18;;;11.2;100
75089;BME280;63673;49.928;8.150;2023-05-10T04:52:16;985.21;;;11.2;100
75089;BME280;63673;49.928;8.150;2023-05-10T04:53:18;985.25;;;11.19;100
75089;BME280;63673;49.928;8.150;2023-05-10T04:54:20;985.25;;;11.18;100
75089;BME280;63673;49.928;8.150;2023-05-10T04:55:21;985.2;;;11.18;100
75089;BME280;63673;49.928;8.150;2023-05-10T04:56:23;985.24;;;11.17;100
75089;BME280;63673;49.928;8.150;2023-05-10T04:57:25;985.23;;;11.17;100
75089;BME280;63673;49.928;8.150;2023-05-10T04:58:26;985.21;;;11.16;100
75089;BME280;63673;49.928;8.150;2023-05-10T04:59:28;985.22;;;11.15;100
75089;BME280;63673;49.928;8.150;2023-05-10T05:00:30;985.17;;;11.15;100
75089;BME280;63673;49.928;8.150;2023-05-10T05:01:32;985.14;;;11.14;100
75089;BME280;63673;49.928;8.150;2023-05-10T05:02:34;985.18;;;11.14;100
75089;BME280;63673;49.928;8.150;2023-05-10T05:03:35;985.13;;;11.12;100
75089;BME280;63673;49.928;8.150;2023-05-10T05:04:37;985.12;;;11.12;100
75089;BME280;63673;49.928;8.150;2023-05-10T05:05:39;985.13;;;11.12;100
75089;BME280;63673;49.928;8.150;2023-05-10T05:06:40;985.11;;;11.11;100
75089;BME280;63673;49.928;8.150;2023-05-10T05:07:42;985.1;;;11.11;100
75089;BME280;63673;49.928;8.150;2023-05-10T05:08:44;985.11;;;11.1;100
75089;BME280;63673;49.928;8.150;2023-05-10T05:09:46;985.03;;;11.1;100
75089;BME280;63673;49.928;8.150;2023-05-10T05:10:47;985.06;;;11.1;100
75089;BME280;63673;49.928;8.150;2023-05-10T05:11:49;985.04;;;11.09;100
75089;BME280;63673;49.928;8.150;2023-05-10T05:12:51;985.06;;;11.08;100
75089;BME280;63673;49.928;8.150;2023-05-10T05:13:53;985.08;;;11.07;100
75089;BME280;63673;49.928;8.150;2023-05-10T05:14:54;985.09;;;11.06;100
75089;BME280;63673;49.928;8.150;2023-05-10T05:15:56;985.07;;;11.07;100
75089;BME280;63673;49.928;8.150;2023-05-10T05:16:58;985.04;;;11.08;100
75089;BME280;63673;49.928;8.150;2023-05-10T05:17:59;985.08;;;11.09;100
75089;BME280;63673;49.928;8.150;2023-05-10T05:19:01;985.02;;;11.1;100
75089;BME280;63673;49.928;8.150;2023-05-10T05:20:03;985.11;;;11.12;100
75089;BME280;63673;49.928;8.150;2023-05-10T05:21:13;985.12;;;11.12;100
75089;BME280;63673;49.928;8.150;2023-05-10T05:22:06;985.09;;;11.14;100
75089;BME280;63673;49.928;8.150;2023-05-10T05:23:08;985.11;;;11.18;100
75089;BME280;63673;49.928;8.150;2023-05-10T05:24:10;985.11;;;11.23;100
75089;BME280;63673;49.928;8.150;2023-05-10T05:25:12;985.03;;;11.31;100
75089;BME280;63673;49.928;8.150;2023-05-10T05:26:13;985.1;;;11.37;100
75089;BME280;63673;49.928;8.150;2023-05-10T05:27:15;985.1;;;11.45;100
75089;BME280;63673;49.928;8.150;2023-05-10T05:28:17;985.14;;;11.51;100
75089;BME280;63673;49.928;8.150;2023-05-10T05:29:19;985.16;;;11.56;100
75089;BME280;63673;49.928;8.150;2023-05-10T05:30:20;985.13;;;11.59;100
75089;BME280;63673;49.928;8.150;2023-05-10T05:31:22;985.17;;;11.63;100
75089;BME280;63673;49.928;8.150;2023-05-10T05:32:24;985.16;;;11.65;100
75089;BME280;63673;49.928;8.150;2023-05-10T05:33:25;985.16;;;11.68;100
75089;BME280;63673;49.928;8.150;2023-05-10T05:34:27;985.16;;;11.73;100
75089;BME280;63673;49.928;8.150;2023-05-10T05:35:29;985.19;;;11.78;100
75089;BME280;63673;49.928;8.150;2023-05-10T05:36:31;985.19;;;11.84;100
75089;BME280;63673;49.928;8.150;2023-05-10T05:37:32;985.17;;;11.91;100
75089;BME280;63673;49.928;8.150;2023-05-10T05:38:34;985.23;;;11.99;100
75089;BME280;63673;49.928;8.150;2023-05-10T05:39:36;985.19;;;12.04;100
75089;BME280;63673;49.928;8.150;2023-05-10T05:40:38;985.19;;;12.12;100
75089;BME280;63673;49.928;8.150;2023-05-10T05:41:39;985.2;;;12.19;100
75089;BME280;63673;49.928;8.150;2023-05-10T05:42:41;985.21;;;12.21;100
75089;BME280;63673;49.928;8.150;2023-05-10T05:43:43;985.15;;;12.25;100
75089;BME280;63673;49.928;8.150;2023-05-10T05:44:45;985.18;;;12.3;100
75089;BME280;63673;49.928;8.150;2023-05-10T05:45:46;985.17;;;12.33;100
75089;BME280;63673;49.928;8.150;2023-05-10T05:46:48;985.16;;;12.36;100
75089;BME280;63673;49.928;8.150;2023-05-10T05:47:50;985.12;;;12.4;100
75089;BME280;63673;49.928;8.150;2023-05-10T05:48:52;985.16;;;12.41;100